Terminal Aerodrome Forecast
Issued by NWS Twin Cities, MN

Home | Current Version | Previous Version | Graphics & Text | Print | Product List | Glossary On
Versions: 1 2 3 4 5 6 7 8 9 10 11 12 13 14
105
FTUS43 KMPX 192332
TAFSTC
TAF
KSTC 192332Z 2000/2024 21005KT P6SM FEW250
     FM201400 16008KT P6SM FEW120 FEW250
     FM201900 19011KT P6SM BKN150=

USA.gov is the U.S. government's official web portal to all federal, state and local government web resources and services.